.
WxDataArchive / Data Records for 2012-08-21
2012-08-20 August 2012 2012-08-22

Data Records for Tuesday, 21 August 2012

Time	Temp	Chill	HIndex	Humid	Dewpt	 Wind 	HiWind	WindDir	Rain 	Barom 
-----	----	-----	------	-----	-----	------	------	-------	-----	----- 
00:00	63.4	63.4	63.4	81	57.5	0	0	---	0.00	29.975 
00:05	63.4	63.4	63.4	81	57.5	0	0	---	0.00	29.975 
00:10	63.4	63.4	63.4	81	57.5	0	1	270	0.00	29.975 
00:15	63.4	63.4	63.4	81	57.5	0	0	---	0.00	29.972 
00:20	63.2	63.2	63.2	81	57.3	0	0	---	0.00	29.972 
00:25	63.2	63.2	63.2	82	57.6	0	0	---	0.00	29.972 
00:30	63.1	63.1	63.1	82	57.5	0	0	---	0.00	29.973 
00:35	63.1	63.1	63.1	82	57.5	0	0	---	0.00	29.973 
00:40	63.1	63.1	63.1	82	57.5	0	0	---	0.00	29.973 
00:45	62.9	62.9	62.9	83	57.7	0	0	---	0.00	29.976 
00:50	62.9	62.9	62.9	83	57.7	0	0	---	0.00	29.976 
00:55	62.9	62.9	62.9	83	57.7	0	0	---	0.00	29.976 
01:00	62.9	62.9	62.9	83	57.7	0	0	---	0.00	29.976 
01:05	62.9	62.9	62.9	83	57.7	0	0	---	0.00	29.976 
01:10	62.7	62.7	62.7	83	57.5	0	0	---	0.00	29.976 
01:15	62.7	62.7	62.7	82	57.1	0	1	270	0.00	29.982 
01:20	62.7	62.7	62.7	81	56.8	0	1	270	0.00	29.982 
01:25	62.7	62.7	62.7	81	56.8	0	1	270	0.00	29.982 
01:30	62.7	62.7	62.7	80	56.4	0	1	270	0.00	29.985 
01:35	62.7	62.7	62.7	80	56.4	0	0	---	0.00	29.985 
01:40	62.6	62.6	62.6	80	56.3	0	0	---	0.00	29.985 
01:45	62.4	62.4	62.4	80	56.1	0	0	---	0.00	29.985 
01:50	62.4	62.4	62.4	81	56.5	0	0	---	0.00	29.985 
01:55	62.1	62.1	62.1	81	56.2	0	0	---	0.00	29.985 
02:00	62.0	62.0	62.0	81	56.1	0	0	---	0.00	29.985 
02:05	61.8	61.8	61.8	81	55.9	0	0	---	0.00	29.985 
02:10	61.5	61.5	61.5	81	55.6	0	0	---	0.00	29.985 
02:15	61.2	61.2	61.2	82	55.7	0	0	---	0.00	29.981 
02:20	61.0	61.0	61.0	82	55.5	0	0	---	0.00	29.981 
02:25	60.9	60.9	60.9	83	55.7	0	0	---	0.00	29.981 
02:30	60.9	60.9	60.9	83	55.7	0	0	---	0.00	29.978 
02:35	60.7	60.7	60.7	83	55.5	0	0	---	0.00	29.978 
02:40	60.5	60.5	60.5	83	55.3	0	0	---	0.00	29.978 
02:45	60.4	60.4	60.4	83	55.2	0	0	---	0.00	29.979 
02:50	60.2	60.2	60.2	84	55.3	0	0	---	0.00	29.979 
02:55	59.9	59.9	59.9	84	55.0	0	0	---	0.00	29.979 
03:00	59.9	59.9	59.9	84	55.0	0	0	---	0.00	29.981 
03:05	59.8	59.8	59.8	84	55.0	0	0	---	0.00	29.981 
03:10	59.6	59.6	59.6	85	55.1	0	0	---	0.00	29.981 
03:15	59.6	59.6	59.6	85	55.1	0	0	---	0.00	29.984 
03:20	59.5	59.5	59.5	85	55.0	0	0	---	0.00	29.984 
03:25	59.5	59.5	59.5	86	55.3	0	0	---	0.00	29.984 
03:30	59.5	59.5	59.5	86	55.3	0	0	---	0.00	29.988 
03:35	59.5	59.5	59.5	86	55.3	0	0	---	0.00	29.988 
03:40	59.5	59.5	59.5	86	55.3	0	0	---	0.00	29.988 
03:45	59.5	59.5	59.5	87	55.6	0	0	---	0.00	29.991 
03:50	59.5	59.5	59.5	87	55.6	0	0	---	0.00	29.991 
03:55	59.5	59.5	59.5	87	55.6	0	0	---	0.00	29.991 
04:00	59.5	59.5	59.5	87	55.6	0	0	---	0.00	29.991 
04:05	59.5	59.5	59.5	87	55.6	0	0	---	0.00	29.991 
04:10	59.6	59.6	59.6	87	55.7	0	0	---	0.00	29.991 
04:15	59.6	59.6	59.6	88	56.0	0	0	---	0.00	29.994 
04:20	59.6	59.6	59.6	88	56.0	0	0	---	0.00	29.994 
04:25	59.8	59.8	59.8	88	56.2	0	0	---	0.00	29.994 
04:30	59.8	59.8	59.8	88	56.2	0	0	---	0.00	29.993 
04:35	59.8	59.8	59.8	88	56.2	0	0	---	0.00	29.993 
04:40	59.8	59.8	59.8	87	55.9	0	0	---	0.00	29.993 
04:45	59.8	59.8	59.8	87	55.9	0	0	---	0.00	29.994 
04:50	59.6	59.6	59.6	87	55.7	0	0	---	0.00	29.994 
04:55	59.6	59.6	59.6	87	55.7	0	0	---	0.00	29.994 
05:00	59.5	59.5	59.5	87	55.6	0	0	---	0.00	29.995 
05:05	59.3	59.3	59.3	88	55.7	0	0	---	0.00	29.995 
05:10	59.2	59.2	59.2	88	55.6	0	0	---	0.00	29.995 
05:15	59.2	59.2	59.2	88	55.6	0	0	---	0.00	29.997 
05:20	59.0	59.0	59.0	88	55.4	0	0	---	0.00	29.997 
05:25	58.9	58.9	58.9	88	55.3	0	0	---	0.00	29.997 
05:30	58.7	58.7	58.7	89	55.5	0	0	---	0.00	30.001 
05:35	58.6	58.6	58.6	89	55.4	0	0	---	0.00	30.001 
05:40	58.4	58.4	58.4	89	55.2	0	0	---	0.00	30.001 
05:45	58.3	58.3	58.3	89	55.1	0	0	---	0.00	30.003 
05:50	58.1	58.1	58.1	90	55.2	0	0	---	0.00	30.003 
05:55	58.0	58.0	58.0	90	55.1	0	0	---	0.00	30.003 
06:00	57.8	57.8	57.8	90	54.9	0	0	---	0.00	30.001 
06:05	57.6	57.6	57.6	90	54.7	0	0	---	0.00	30.001 
06:10	57.5	57.5	57.5	90	54.6	0	0	---	0.00	30.001 
06:15	57.5	57.5	57.5	91	54.9	0	0	---	0.00	30.000 
06:20	57.2	57.2	57.2	91	54.6	0	0	---	0.00	30.000 
06:25	57.0	57.0	57.0	91	54.4	0	0	---	0.00	30.000 
06:30	56.9	56.9	56.9	91	54.3	0	0	---	0.00	30.002 
06:35	56.7	56.7	56.7	91	54.1	0	0	---	0.00	30.002 
06:40	56.7	56.7	56.7	91	54.1	0	0	---	0.00	30.002 
06:45	56.6	56.6	56.6	91	54.0	0	0	---	0.00	30.011 
06:50	56.6	56.6	56.6	92	54.3	0	0	---	0.00	30.011 
06:55	56.5	56.5	56.5	92	54.2	0	0	---	0.00	30.011 
07:00	56.5	56.5	56.5	92	54.2	0	0	---	0.00	30.015 
07:05	56.3	56.3	56.3	92	54.0	0	0	---	0.00	30.015 
07:10	56.3	56.3	56.3	92	54.0	0	0	---	0.00	30.015 
07:15	56.3	56.3	56.3	92	54.0	0	0	---	0.00	30.020 
07:20	56.3	56.3	56.3	92	54.0	0	0	---	0.00	30.020 
07:25	56.5	56.5	56.5	92	54.2	0	0	---	0.00	30.020 
07:30	56.7	56.7	56.7	93	54.7	0	0	---	0.00	30.027 
07:35	57.0	57.0	57.0	93	55.0	0	0	---	0.00	30.027 
07:40	57.2	57.2	57.2	93	55.2	0	0	---	0.00	30.027 
07:45	57.2	57.2	57.2	93	55.2	0	0	---	0.00	30.029 
07:50	57.3	57.3	57.3	93	55.3	0	0	---	0.00	30.029 
07:55	57.8	57.8	57.8	94	56.1	0	0	---	0.00	30.029 
08:00	58.6	58.6	58.6	94	56.9	0	0	---	0.00	30.034 
08:05	59.2	59.2	59.2	94	57.5	0	0	---	0.00	30.034 
08:10	59.8	59.8	59.8	93	57.8	0	0	---	0.00	30.034 
08:15	60.2	60.2	60.2	92	57.9	0	0	---	0.00	30.039 
08:20	60.4	60.4	60.4	92	58.1	0	0	---	0.00	30.039 
08:25	60.4	60.4	60.4	92	58.1	0	1	270	0.00	30.039 
08:30	60.5	60.5	60.5	91	57.9	0	1	270	0.00	30.044 
08:35	60.7	60.7	60.7	90	57.7	0	1	270	0.00	30.044 
08:40	60.7	60.7	60.7	89	57.4	0	1	270	0.00	30.044 
08:45	60.9	60.9	60.9	88	57.3	0	1	270	0.00	30.045 
08:50	61.2	61.2	61.2	87	57.3	0	1	270	0.00	30.045 
08:55	61.3	61.3	61.3	84	56.4	0	1	270	0.00	30.045 
09:00	61.8	61.8	61.8	83	56.6	0	1	270	0.00	30.043 
09:05	62.1	62.1	62.1	82	56.5	0	1	270	0.00	30.043 
09:10	62.6	62.6	62.6	81	56.7	0	1	270	0.00	30.043 
09:15	62.9	62.9	62.9	79	56.3	0	1	270	0.00	30.047 
09:20	63.4	63.4	63.4	80	57.1	0	1	270	0.00	30.047 
09:25	63.9	63.9	63.9	78	56.9	0	1	270	0.00	30.047 
09:30	64.3	64.3	64.3	76	56.6	0	1	270	0.00	30.044 
09:35	64.8	64.8	64.8	75	56.7	0	1	270	0.00	30.044 
09:40	65.3	65.3	65.3	74	56.8	0	1	270	0.00	30.044 
09:45	66.0	66.0	66.0	73	57.1	0	1	270	0.00	30.044 
09:50	66.6	66.6	66.6	72	57.3	0	1	270	0.00	30.044 
09:55	67.1	67.1	67.1	69	56.6	0	2	270	0.00	30.044 
10:00	67.4	67.4	67.4	68	56.5	0	1	270	0.00	30.047 
10:05	67.8	67.8	67.8	67	56.4	0	1	270	0.00	30.047 
10:10	68.1	68.1	68.1	67	56.7	0	2	270	0.00	30.047 
10:15	68.6	68.6	68.6	66	56.8	0	2	270	0.00	30.047 
10:20	68.9	68.9	68.9	64	56.2	1	3	270	0.00	30.047 
10:25	69.3	69.3	69.3	62	55.7	1	3	270	0.00	30.047 
10:30	69.6	69.6	69.6	61	55.5	1	3	270	0.00	30.047 
10:35	69.8	69.8	69.8	60	55.3	0	1	270	0.00	30.047 
10:40	70.4	70.4	70.4	60	55.8	0	2	270	0.00	30.047 
10:45	70.8	70.8	70.8	59	55.7	1	2	270	0.00	30.053 
10:50	70.8	70.8	70.8	52	52.3	1	3	270	0.00	30.053 
10:55	71.1	71.1	71.1	55	54.1	1	2	270	0.00	30.053 
11:00	71.5	71.5	71.5	54	54.0	1	3	270	0.00	30.054 
11:05	71.6	71.6	71.6	56	55.1	1	2	270	0.00	30.054 
11:10	72.0	72.0	72.0	52	53.4	1	3	270	0.00	30.054 
11:15	72.1	72.1	72.1	53	54.0	1	3	270	0.00	30.056 
11:20	72.1	72.1	72.1	50	52.4	1	4	270	0.00	30.056 
11:25	72.0	72.0	72.0	49	51.8	1	3	270	0.00	30.056 
11:30	72.3	72.3	72.3	50	52.6	0	2	270	0.00	30.055 
11:35	72.7	72.7	72.7	50	53.0	1	2	270	0.00	30.055 
11:40	72.8	72.8	72.8	49	52.5	1	3	270	0.00	30.055 
11:45	73.2	73.2	73.2	47	51.7	0	2	270	0.00	30.054 
11:50	73.3	73.3	73.3	46	51.3	1	3	292	0.00	30.054 
11:55	73.3	73.3	73.3	48	52.4	0	1	292	0.00	30.054 
12:00	73.3	73.3	73.3	44	50.1	1	3	292	0.00	30.055 
12:05	74.0	74.0	74.0	47	52.5	1	4	292	0.00	30.055 
12:10	74.0	74.0	74.0	47	52.5	1	3	338	0.00	30.055 
12:15	74.0	74.0	74.0	46	51.9	1	5	338	0.00	30.055 
12:20	74.6	74.6	74.6	48	53.6	0	3	315	0.00	30.055 
12:25	74.6	74.6	74.6	47	53.0	1	4	270	0.00	30.055 
12:30	74.4	74.4	74.4	43	50.4	1	2	315	0.00	30.056 
12:35	74.6	74.6	74.6	45	51.8	1	2	315	0.00	30.056 
12:40	75.1	75.1	77.7	47	53.5	1	3	315	0.00	30.056 
12:45	75.3	75.3	77.6	42	50.6	0	2	315	0.00	30.053 
12:50	75.8	75.8	77.9	45	52.9	0	2	315	0.00	30.053 
12:55	76.0	76.0	78.0	45	53.1	1	3	315	0.00	30.053 
13:00	76.5	76.5	78.2	46	54.2	1	3	315	0.00	30.052 
13:05	76.7	76.7	78.3	45	53.7	1	4	315	0.00	30.052 
13:10	76.8	76.8	78.3	45	53.8	0	2	135	0.00	30.052 
13:15	76.8	76.8	78.3	43	52.6	1	4	315	0.00	30.050 
13:20	76.3	76.3	77.9	40	50.2	1	3	338	0.00	30.050 
13:25	76.5	76.5	78.2	44	52.9	0	1	338	0.00	30.050 
13:30	76.8	76.8	78.2	42	51.9	0	2	338	0.00	30.051 
13:35	77.0	77.0	78.4	44	53.4	1	5	90	0.00	30.051 
13:40	76.7	76.7	78.1	39	49.9	0	2	90	0.00	30.051 
13:45	76.8	76.8	78.3	43	52.6	1	3	90	0.00	30.052 
13:50	77.2	77.2	78.5	44	53.6	0	1	270	0.00	30.052 
13:55	76.8	76.8	78.1	39	49.9	1	3	270	0.00	30.052 
14:00	76.0	76.0	78.0	44	52.5	0	1	270	0.00	30.049 
14:05	76.1	76.1	78.0	43	52.0	0	3	270	0.00	30.049 
14:10	76.5	76.5	78.0	40	50.4	0	2	270	0.00	30.049 
14:15	77.4	77.4	78.5	42	52.5	0	2	248	0.00	30.049 
14:20	77.4	77.4	78.4	39	50.5	1	5	270	0.00	30.049 
14:25	77.2	77.2	78.3	39	50.3	1	3	270	0.00	30.049 
14:30	77.2	77.2	78.3	39	50.3	1	5	270	0.00	30.045 
14:35	77.4	77.4	78.6	44	53.8	1	3	90	0.00	30.045 
14:40	77.6	77.6	78.6	42	52.7	0	2	90	0.00	30.045 
14:45	77.4	77.4	78.4	39	50.5	1	3	292	0.00	30.041 
14:50	77.7	77.7	78.5	38	50.0	1	4	292	0.00	30.041 
14:55	77.9	77.9	78.5	37	49.5	1	2	292	0.00	30.041 
15:00	77.9	77.9	78.6	39	50.9	2	4	292	0.00	30.037 
15:05	77.9	77.9	78.7	40	51.6	1	3	338	0.00	30.037 
15:10	77.9	77.9	78.6	38	50.2	0	1	248	0.00	30.037 
15:15	77.2	77.2	78.3	39	50.3	0	1	248	0.00	30.038 
15:20	76.7	76.7	78.1	41	51.2	0	1	248	0.00	30.038 
15:25	76.7	76.7	78.0	38	49.2	0	3	112	0.00	30.038 
15:30	76.8	76.8	78.1	40	50.6	0	2	112	0.00	30.036 
15:35	77.4	77.4	78.3	38	49.8	1	3	112	0.00	30.036 
15:40	77.9	77.9	78.3	34	47.2	1	2	112	0.00	30.036 
15:45	78.6	78.6	78.9	38	50.8	0	3	270	0.00	30.030 
15:50	79.2	79.2	78.9	33	47.6	1	6	270	0.00	30.030 
15:55	79.0	79.0	78.9	34	48.2	0	3	292	0.00	30.030 
16:00	79.2	79.2	79.1	35	49.2	1	3	292	0.00	30.023 
16:05	78.1	78.1	78.5	36	48.9	1	3	292	0.00	30.023 
16:10	77.4	77.4	78.3	38	49.8	0	1	292	0.00	30.023 
16:15	77.9	77.9	78.7	40	51.6	0	2	292	0.00	30.020 
16:20	78.5	78.5	78.7	36	49.3	0	1	292	0.00	30.020 
16:25	78.5	78.5	79.0	40	52.1	0	2	292	0.00	30.020 
16:30	77.7	77.7	78.3	35	47.8	0	1	292	0.00	30.020 
16:35	77.2	77.2	77.9	33	45.8	1	3	292	0.00	30.020 
16:40	76.8	76.8	78.0	37	48.5	0	1	292	0.00	30.020 
16:45	76.5	76.5	77.9	37	48.3	0	2	292	0.00	30.023 
16:50	76.7	76.7	78.1	39	49.9	0	2	292	0.00	30.023 
16:55	77.0	77.0	78.2	40	50.8	1	3	90	0.00	30.023 
17:00	77.6	77.6	78.4	38	50.0	0	1	90	0.00	30.023 
17:05	77.9	77.9	78.6	39	50.9	0	2	90	0.00	30.023 
17:10	78.1	78.1	78.5	35	48.2	0	2	90	0.00	30.023 
17:15	77.7	77.7	78.3	35	47.8	0	1	90	0.00	30.024 
17:20	77.0	77.0	78.0	35	47.2	0	1	90	0.00	30.024 
17:25	76.7	76.7	78.0	38	49.2	0	1	90	0.00	30.024 
17:30	76.8	76.8	78.0	38	49.2	1	3	90	0.00	30.026 
17:35	77.4	77.4	78.1	34	46.8	1	3	270	0.00	30.026 
17:40	77.6	77.6	78.2	34	47.0	0	3	270	0.00	30.026 
17:45	77.2	77.2	78.2	37	48.9	0	1	270	0.00	30.025 
17:50	76.8	76.8	77.9	35	47.1	0	1	270	0.00	30.025 
17:55	77.0	77.0	78.0	35	47.2	0	2	270	0.00	30.025 
18:00	77.2	77.2	78.1	35	47.4	0	2	270	0.00	30.028 
18:05	77.4	77.4	78.1	35	47.6	0	1	270	0.00	30.028 
18:10	77.6	77.6	78.3	36	48.5	1	3	270	0.00	30.028 
18:15	77.6	77.6	78.2	35	47.8	1	4	270	0.00	30.027 
18:20	77.6	77.6	78.2	35	47.8	0	2	270	0.00	30.027 
18:25	77.2	77.2	78.1	36	48.2	1	2	270	0.00	30.027 
18:30	77.2	77.2	78.1	35	47.4	0	1	270	0.00	30.033 
18:35	77.0	77.0	78.0	35	47.2	0	2	270	0.00	30.033 
18:40	77.0	77.0	78.1	37	48.7	0	1	270	0.00	30.033 
18:45	77.0	77.0	78.1	37	48.7	0	1	270	0.00	30.037 
18:50	76.8	76.8	78.0	37	48.5	0	1	270	0.00	30.037 
18:55	76.7	76.7	78.1	39	49.9	0	1	270	0.00	30.037 
19:00	76.5	76.5	77.9	38	49.0	0	2	270	0.00	30.039 
19:05	76.3	76.3	77.9	39	49.5	0	2	270	0.00	30.039 
19:10	76.1	76.1	77.8	38	48.6	0	2	270	0.00	30.039 
19:15	76.0	76.0	77.7	38	48.5	0	3	270	0.00	30.039 
19:20	75.8	75.8	77.7	40	49.7	0	1	270	0.00	30.039 
19:25	75.4	75.4	77.6	39	48.7	0	1	270	0.00	30.039 
19:30	75.3	75.3	77.5	39	48.6	0	1	270	0.00	30.042 
19:35	75.3	75.3	77.5	39	48.6	0	1	270	0.00	30.042 
19:40	75.1	75.1	77.5	40	49.1	0	1	270	0.00	30.042 
19:45	74.9	74.9	74.9	40	48.9	0	1	270	0.00	30.044 
19:50	74.7	74.7	74.7	40	48.8	0	1	270	0.00	30.044 
19:55	74.6	74.6	74.6	39	48.0	0	1	270	0.00	30.044 
20:00	74.4	74.4	74.4	39	47.8	0	1	270	0.00	30.047 
20:05	74.2	74.2	74.2	39	47.6	0	1	270	0.00	30.047 
20:10	73.9	73.9	73.9	40	48.0	0	1	270	0.00	30.047 
20:15	73.5	73.5	73.5	41	48.3	0	0	---	0.00	30.046 
20:20	73.2	73.2	73.2	41	48.1	0	0	---	0.00	30.046 
20:25	72.8	72.8	72.8	42	48.4	0	0	---	0.00	30.046 
20:30	72.5	72.5	72.5	42	48.1	0	1	270	0.00	30.053 
20:35	72.3	72.3	72.3	43	48.5	0	0	---	0.00	30.053 
20:40	71.8	71.8	71.8	45	49.3	0	0	---	0.00	30.053 
20:45	71.3	71.3	71.3	45	48.8	0	0	---	0.00	30.055 
20:50	70.9	70.9	70.9	46	49.1	0	0	---	0.00	30.055 
20:55	70.6	70.6	70.6	47	49.4	0	0	---	0.00	30.055 
21:00	70.3	70.3	70.3	48	49.7	0	0	---	0.00	30.060 
21:05	69.8	69.8	69.8	49	49.8	0	0	---	0.00	30.060 
21:10	69.3	69.3	69.3	50	49.8	0	0	---	0.00	30.060 
21:15	68.6	68.6	68.6	51	49.7	0	0	---	0.00	30.066 
21:20	67.9	67.9	67.9	52	49.6	0	0	---	0.00	30.066 
21:25	67.4	67.4	67.4	54	50.2	0	0	---	0.00	30.066 
21:30	66.9	66.9	66.9	54	49.7	0	0	---	0.00	30.071 
21:35	66.6	66.6	66.6	55	49.9	0	0	---	0.00	30.071 
21:40	66.1	66.1	66.1	56	49.9	0	0	---	0.00	30.071 
21:45	65.8	65.8	65.8	57	50.1	0	0	---	0.00	30.076 
21:50	65.5	65.5	65.5	58	50.3	0	0	---	0.00	30.076 
21:55	65.2	65.2	65.2	60	51.0	0	0	---	0.00	30.076 
22:00	65.0	65.0	65.0	60	50.8	0	0	---	0.00	30.080 
22:05	64.8	64.8	64.8	60	50.6	0	0	---	0.00	30.080 
22:10	64.5	64.5	64.5	61	50.7	0	0	---	0.00	30.080 
22:15	64.2	64.2	64.2	62	50.9	0	0	---	0.00	30.082 
22:20	63.9	63.9	63.9	63	51.1	0	0	---	0.00	30.082 
22:25	63.5	63.5	63.5	63	50.7	0	0	---	0.00	30.082 
22:30	63.2	63.2	63.2	64	50.8	0	0	---	0.00	30.084 
22:35	62.9	62.9	62.9	65	50.9	0	0	---	0.00	30.084 
22:40	62.6	62.6	62.6	65	50.7	0	0	---	0.00	30.084 
22:45	62.3	62.3	62.3	66	50.8	0	0	---	0.00	30.086 
22:50	61.8	61.8	61.8	67	50.7	0	0	---	0.00	30.086 
22:55	61.5	61.5	61.5	68	50.8	0	0	---	0.00	30.086 
23:00	61.3	61.3	61.3	69	51.0	0	0	---	0.00	30.087 
23:05	61.0	61.0	61.0	70	51.1	0	0	---	0.00	30.087 
23:10	60.7	60.7	60.7	72	51.6	0	0	---	0.00	30.087 
23:15	60.5	60.5	60.5	73	51.8	0	0	---	0.00	30.086 
23:20	60.4	60.4	60.4	73	51.7	0	0	---	0.00	30.086 
23:25	60.1	60.1	60.1	74	51.8	0	0	---	0.00	30.086 
23:30	59.9	59.9	59.9	75	52.0	0	0	---	0.00	30.086 
23:35	59.9	59.9	59.9	76	52.3	0	0	---	0.00	30.086 
23:40	59.8	59.8	59.8	76	52.2	0	0	---	0.00	30.086 
23:45	59.6	59.6	59.6	76	52.0	0	0	---	0.00	30.087 
23:50	59.5	59.5	59.5	76	51.9	0	0	---	0.00	30.087 
23:55	59.3	59.3	59.3	76	51.7	0	0	---	0.00	30.087 

CoCoRaHS
IN-AL-39
A2 Web Hosting
Creative Commons License
GoDaddy
search engine by freefind advanced

loaded 2018-11-20 08:22:32 • last modified 2010-11-18 10:43:29
Privacy PolicyDisclaimer
• wx.awcolley.com is powered by PmWiki v.2002016 •
• all content (unless otherwise noted) © 2018 A W Colley